Latest Weather Observations for Emerald

IDQ60801

Issued at 8:02 pm EST Thursday 30 July 2015 (issued every 30 minutes, with the page automatically refreshed every 10 minutes)

About weather observations | Map of weather stations | Latest weather observations for QLD | Other Formats
Station Details ID: 035264 Name: EMERALD AIRPORT Lat: -23.57 Lon: 148.18 Height: 189.4 m
Data from the previous 72 hours. | See also: Recent months at Emerald
Date/Time
EST
Temp
°C
App
Temp
°C
Dew
Point
Rel
Hum
%
Delta-T
°C
Wind Press
QNH
hPa
Press
MSL
hPa
Rain
since 9 am
mm
Dir
 
Spd
km/h
Gust
km/h
Spd
kts
Gust
kts
30/08:00pm 16.4 14.8 8.1 58 4.2 NE 6 7 3 4 1023.6 - 0.0
30/07:30pm 16.9 15.1 8.1 56 4.5 ENE 7 9 4 5 1023.2 - 0.0
30/07:00pm 17.3 14.8 8.2 55 4.7 ENE 11 13 6 7 1022.8 - 0.0
30/06:30pm 18.4 15.6 8.4 52 5.2 E 13 15 7 8 1022.7 - 0.0
30/06:00pm 19.5 16.6 8.2 48 5.9 E 13 15 7 8 1022.6 1022.5 0.0
30/05:30pm 22.0 19.1 8.2 41 7.3 E 13 15 7 8 1022.4 - 0.0
30/05:00pm 23.2 20.4 8.5 39 7.9 ENE 13 19 7 10 1022.2 - 0.0
30/04:30pm 22.9 20.0 8.2 39 7.8 NE 13 19 7 10 1022.1 - 0.0
30/04:00pm 24.0 20.3 8.0 36 8.5 E 17 22 9 12 1021.9 - 0.0
30/03:30pm 24.5 20.4 8.5 36 8.6 E 20 30 11 16 1022.0 - 0.0
30/03:00pm 23.8 20.3 8.6 38 8.2 ESE 17 24 9 13 1022.3 1022.2 0.0
30/02:30pm 23.2 19.3 8.5 39 7.9 ENE 19 30 10 16 1022.7 - 0.0
30/02:00pm 23.9 20.8 8.7 38 8.2 NNE 15 20 8 11 1022.9 - 0.0
30/01:30pm 24.1 20.6 8.9 38 8.3 E 17 39 9 21 1023.2 - 0.0
30/01:00pm 23.5 19.9 8.4 38 8.1 E 17 32 9 17 1023.8 - 0.0
30/12:30pm 23.5 19.1 8.8 39 7.9 E 22 32 12 17 1024.5 - 0.0
30/12:00pm 22.4 19.0 7.8 39 7.7 E 15 28 8 15 1025.1 1024.9 0.0
30/11:30am 21.6 17.9 7.8 41 7.2 E 17 26 9 14 1025.5 - 0.0
30/11:00am 21.7 16.8 6.8 38 7.7 E 22 30 12 16 1026.0 - 0.0
30/10:30am 20.9 16.4 6.8 40 7.2 E 20 30 11 16 1026.4 - 0.0
30/10:00am 19.3 15.4 7.1 45 6.2 E 17 22 9 12 1026.8 - 0.0
30/09:30am 17.8 14.8 6.0 46 5.8 E 11 19 6 10 1027.0 - 0.0
30/09:00am 15.9 13.2 5.8 51 4.9 S 9 13 5 7 1027.0 1026.9 0.0
30/08:30am 14.0 10.8 4.9 54 4.3 SSE 11 13 6 7 1026.7 - 0.0
30/08:00am 12.2 8.8 3.9 57 3.8 S 11 15 6 8 1026.7 - 0.0
30/07:30am 10.5 6.6 3.3 61 3.2 SSE 13 17 7 9 1026.3 - 0.0
30/07:00am 8.8 4.7 2.4 64 2.7 S 13 15 7 8 1026.0 - 0.0
30/06:30am 8.5 5.2 2.3 65 2.6 SSE 9 15 5 8 1025.8 - 0.0
30/06:00am 8.3 4.9 2.1 65 2.6 S 9 13 5 7 1025.7 1025.6 0.0
30/05:30am 8.9 5.6 2.5 64 2.7 S 9 9 5 5 1025.6 - 0.0
30/05:00am 8.9 5.9 2.3 63 2.8 S 7 9 4 5 1025.8 - 0.0
30/04:30am 8.9 5.2 2.5 64 2.7 S 11 15 6 8 1025.7 - 0.0
30/04:00am 9.1 5.1 2.7 64 2.7 S 13 15 7 8 1025.8 - 0.0
30/03:30am 9.1 5.4 2.4 63 2.9 S 11 13 6 7 1025.7 - 0.0
30/03:00am 9.5 6.8 2.8 63 2.9 SSE 6 7 3 4 1025.6 1025.5 0.0
30/02:30am 9.6 6.8 2.9 63 2.9 SSE 7 9 4 5 1026.0 - 0.0
30/02:00am 10.5 7.9 3.3 61 3.2 S 6 7 3 4 1026.4 - 0.0
30/01:30am 10.6 7.9 3.9 63 3.0 SSE 7 9 4 5 1026.7 - 0.0
30/01:00am 11.4 8.8 4.2 61 3.3 ESE 7 9 4 5 1026.6 - 0.0
30/12:30am 11.8 8.9 4.5 61 3.3 E 9 11 5 6 1026.8 - 0.0
30/12:00am 11.9 9.1 3.4 56 3.8 E 7 9 4 5 1026.7 1026.6 0.0
 
Date/Time
EST
Temp
°C
App
Temp
°C
Dew
Point
Rel
Hum
%
Delta-T
°C
Wind Press
QNH
hPa
Press
MSL
hPa
Rain
since 9 am
mm
Dir
 
Spd
km/h
Gust
km/h
Spd
kts
Gust
kts
29/11:30pm 12.7 9.9 3.4 53 4.2 E 7 7 4 4 1026.8 - 0.0
29/11:00pm 12.7 10.3 2.3 49 4.6 SE 4 7 2 4 1026.9 - 0.0
29/10:30pm 13.6 10.8 3.4 50 4.6 ESE 7 9 4 5 1027.2 - 0.0
29/10:00pm 13.0 8.9 2.3 48 4.7 ESE 13 15 7 8 1027.1 - 0.0
29/09:30pm 14.4 10.3 2.3 44 5.4 SSE 13 15 7 8 1026.9 - 0.0
29/09:00pm 13.8 10.8 1.8 44 5.2 E 7 11 4 6 1026.5 1026.4 0.0
29/08:30pm 15.2 11.1 2.1 41 5.9 SE 13 17 7 9 1026.5 - 0.0
29/08:00pm 15.7 12.0 2.2 40 6.1 SSE 11 13 6 7 1026.4 - 0.0
29/07:30pm 15.6 12.2 2.1 40 6.1 SSE 9 11 5 6 1026.2 - 0.0
29/07:00pm 15.8 12.0 1.9 39 6.2 E 11 15 6 8 1026.1 - 0.0
29/06:30pm 16.6 12.8 1.5 36 6.7 E 11 13 6 7 1025.8 - 0.0
29/06:00pm 17.9 13.7 1.4 33 7.4 E 13 17 7 9 1025.5 1025.4 0.0
29/05:30pm 20.6 15.3 2.0 29 8.7 E 19 22 10 12 1025.2 - 0.0
29/05:00pm 21.9 16.5 1.5 26 9.5 E 19 26 10 14 1025.0 - 0.0
29/04:30pm 22.5 17.0 0.4 23 10.1 E 19 28 10 15 1024.7 - 0.0
29/04:00pm 22.7 17.2 -2.1 19 10.9 ESE 17 24 9 13 1024.5 - 0.0
29/03:30pm 23.8 17.3 -2.7 17 11.6 ESE 22 33 12 18 1024.6 - 0.0
29/03:00pm 22.7 17.3 1.1 24 10.0 ESE 19 26 10 14 1024.9 1024.7 0.0
29/02:30pm 22.5 16.9 0.9 24 10.0 SE 20 32 11 17 1025.0 - 0.0
29/02:00pm 21.9 15.5 1.0 25 9.7 SE 24 33 13 18 1025.5 - 0.0
29/01:30pm 21.4 15.3 0.6 25 9.5 SE 22 32 12 17 1026.0 - 0.0
29/01:00pm 20.8 15.3 1.6 28 8.9 SE 20 30 11 16 1026.6 - 0.0
29/12:30pm 20.3 16.0 3.1 32 8.2 SE 15 26 8 14 1027.4 - 0.0
29/12:00pm 20.0 14.5 1.9 30 8.3 SE 20 28 11 15 1028.0 1027.9 0.0
29/11:30am 19.3 14.3 3.5 35 7.5 ESE 19 28 10 15 1028.7 - 0.0
29/11:00am 18.6 13.6 3.6 37 7.1 ESE 19 26 10 14 1029.3 - 0.0
29/10:30am 17.2 12.4 2.8 38 6.6 SE 17 28 9 15 1029.8 - 0.0
29/10:00am 16.5 11.3 2.5 39 6.4 SE 19 24 10 13 1030.1 - 0.0
29/09:30am 14.7 9.1 0.9 39 6.0 SSE 20 26 11 14 1030.4 - 0.0
29/09:00am 13.6 6.7 -0.1 39 5.7 SE 26 32 14 17 1030.0 1030.0 0.0
29/08:30am 12.1 4.6 -1.4 39 5.4 SSE 28 35 15 19 1029.8 - 0.0
29/08:00am 11.0 3.5 -1.7 41 5.0 SSE 28 37 15 20 1030.0 - 0.0
29/07:30am 9.7 2.5 -2.3 43 4.6 SSE 26 37 14 20 1029.9 - 0.0
29/07:00am 8.9 1.6 -2.7 44 4.4 SSE 26 33 14 18 1029.9 - 0.0
29/06:30am 8.1 1.5 -3.1 45 4.1 SSE 22 28 12 15 1029.5 - 0.0
29/06:00am 8.5 1.9 -3.0 44 4.2 S 22 30 12 16 1029.1 1029.0 0.0
29/05:30am 8.8 2.6 -3.1 43 4.4 SSE 20 26 11 14 1028.7 - 0.0
29/05:00am 9.2 2.6 -3.3 41 4.7 SSE 22 28 12 15 1028.3 - 0.0
29/04:30am 9.4 2.1 -3.2 41 4.7 SSE 26 33 14 18 1028.1 - 0.0
29/04:00am 9.7 2.7 -3.2 40 4.8 SSE 24 32 13 17 1028.5 - 0.0
29/03:30am 9.9 2.9 -3.4 39 5.0 SSE 24 35 13 19 1028.5 - 0.0
29/03:00am 10.1 2.8 -3.2 39 5.0 SSE 26 33 14 18 1028.5 1028.4 0.0
29/02:30am 9.9 3.0 -3.0 40 4.9 SSE 24 30 13 16 1028.3 - 0.0
29/02:00am 10.7 4.1 -3.0 38 5.2 SSE 22 30 12 16 1028.5 - 0.0
29/01:30am 11.4 4.4 -3.1 36 5.6 SSE 24 32 13 17 1028.7 - 0.0
29/01:00am 11.4 4.1 -3.1 36 5.6 SSE 26 35 14 19 1028.6 - 0.0
29/12:30am 11.4 4.1 -3.1 36 5.6 SSE 26 33 14 18 1028.5 - 0.0
29/12:00am 11.4 4.8 -3.1 36 5.5 SSE 22 30 12 16 1028.5 1028.4 0.0
 
Date/Time
EST
Temp
°C
App
Temp
°C
Dew
Point
Rel
Hum
%
Delta-T
°C
Wind Press
QNH
hPa
Press
MSL
hPa
Rain
since 9 am
mm
Dir
 
Spd
km/h
Gust
km/h
Spd
kts
Gust
kts
28/11:30pm 11.5 4.6 -3.0 36 5.6 SSE 24 32 13 17 1028.7 - 0.0
28/11:00pm 11.6 5.4 -3.3 35 5.7 SSE 20 28 11 15 1028.7 - 0.0
28/10:30pm 12.8 6.2 -3.0 33 6.2 SSE 22 28 12 15 1028.8 - 0.0
28/10:00pm 12.9 6.9 -3.4 32 6.3 SSE 19 26 10 14 1028.7 - 0.0
28/09:30pm 13.2 7.0 -3.5 31 6.5 SSE 20 26 11 14 1028.7 - 0.0
28/09:00pm 13.7 7.5 -3.5 30 6.7 SSE 20 26 11 14 1028.6 1028.5 0.0
28/08:30pm 14.3 8.1 -3.0 30 6.9 SSE 20 26 11 14 1028.4 - 0.0
28/08:00pm 14.2 8.6 -3.1 30 6.8 SSE 17 22 9 12 1028.2 - 0.0
28/07:30pm 15.0 9.4 -2.9 29 7.2 SSE 17 20 9 11 1027.9 - 0.0
28/07:00pm 15.0 10.2 -2.4 30 7.0 SSE 13 19 7 10 1027.5 - 0.0
28/06:30pm 15.7 10.9 -2.3 29 7.4 S 13 17 7 9 1027.1 - 0.0
28/06:00pm 17.8 12.6 -2.5 25 8.4 SSE 15 19 8 10 1026.6 1026.5 0.0
28/05:30pm 19.1 12.7 -6.5 17 9.9 SSE 19 22 10 12 1026.3 - 0.0
28/05:00pm 20.6 14.4 -5.3 17 10.4 SSE 19 22 10 12 1026.2 - 0.0
28/04:30pm 20.8 13.5 -5.9 16 10.7 SE 24 30 13 16 1026.1 - 0.0
28/04:00pm 21.2 14.5 -4.0 18 10.5 SSE 22 32 12 17 1025.9 - 0.0
28/03:30pm 20.7 14.6 -3.7 19 10.2 SSE 19 28 10 15 1025.8 - 0.0
28/03:00pm 20.6 14.0 -3.1 20 9.9 SSE 22 39 12 21 1026.1 1026.0 0.0
28/02:30pm 19.9 13.3 -3.0 21 9.6 SSE 22 35 12 19 1026.2 - 0.0
28/02:00pm 19.3 12.4 -2.9 22 9.3 SSE 24 33 13 18 1026.5 - 0.0
28/01:30pm 19.6 12.5 -1.5 24 9.1 SE 26 35 14 19 1026.9 - 0.0
28/01:00pm 18.1 10.9 -1.7 26 8.4 SSE 26 35 14 19 1027.4 - 0.0
28/12:30pm 17.8 11.1 -0.9 28 8.0 SSE 24 35 13 19 1028.1 - 0.0
28/12:00pm 16.7 9.2 -1.4 29 7.6 SSE 28 35 15 19 1028.6 1028.5 0.0
28/11:30am 15.7 7.8 -1.4 31 7.1 SSE 30 41 16 22 1029.3 - 0.0
28/11:00am 14.6 6.3 -0.3 36 6.3 SSE 33 41 18 22 1029.6 - 0.0
28/10:30am 14.6 6.6 0.5 38 6.1 SE 32 41 17 22 1030.2 - 0.0
28/10:00am 13.7 4.7 0.4 40 5.7 SSE 37 48 20 26 1030.4 - 0.0
28/09:30am 13.1 4.5 0.5 42 5.3 SSE 35 46 19 25 1030.5 - 0.0
28/09:00am 12.9 4.8 1.0 44 5.0 SSE 33 48 18 26 1030.5 1030.4 0.0
28/08:30am 12.5 4.7 1.8 48 4.6 SSE 32 43 17 23 1030.1 - 0.0
28/08:00am 11.1 4.1 1.9 53 3.9 SSE 28 39 15 21 1029.6 - 0.0
28/07:30am 10.9 3.9 2.0 54 3.8 SSE 28 39 15 21 1029.2 - 0.0
28/07:00am 11.3 4.7 2.3 54 3.9 SSE 26 35 14 19 1028.7 - 0.0
28/06:30am 11.5 4.6 2.5 54 3.9 SSE 28 35 15 19 1028.5 - 0.0
28/06:00am 11.8 6.1 2.8 54 3.9 SSE 22 32 12 17 1028.2 1028.1 0.0
28/05:30am 12.1 4.9 2.8 53 4.1 SSE 30 43 16 23 1027.7 - 0.0
28/05:00am 12.4 4.8 2.8 52 4.3 SSE 32 44 17 24 1027.4 - 0.0
28/04:30am 12.7 5.9 3.1 52 4.3 SSE 28 44 15 24 1027.2 - 0.0
28/04:00am 12.9 6.5 3.3 52 4.3 SSE 26 37 14 20 1027.1 - 0.0
28/03:30am 13.2 7.3 3.8 53 4.3 SSE 24 33 13 18 1026.9 - 0.0
28/03:00am 13.5 8.1 4.4 54 4.2 SSE 22 39 12 21 1027.0 1026.9 0.0
28/02:30am 13.8 6.9 4.7 54 4.3 SSE 30 43 16 23 1026.8 - 0.0
28/02:00am 14.0 7.5 4.9 54 4.3 SSE 28 41 15 22 1026.6 - 0.0
28/01:30am 14.3 7.8 4.9 53 4.4 SSE 28 41 15 22 1026.7 - 0.0
28/01:00am 14.7 7.5 5.0 52 4.6 SSE 32 43 17 23 1027.0 - 0.0
28/12:30am 15.0 7.5 4.7 50 4.9 SSE 33 50 18 27 1026.8 - 0.0
28/12:00am 15.2 7.4 4.9 50 4.9 SSE 35 52 19 28 1026.4 1026.3 0.0
 
Date/Time
EST
Temp
°C
App
Temp
°C
Dew
Point
Rel
Hum
%
Delta-T
°C
Wind Press
QNH
hPa
Press
MSL
hPa
Rain
since 9 am
mm
Dir
 
Spd
km/h
Gust
km/h
Spd
kts
Gust
kts
27/11:30pm 15.6 7.4 4.9 49 5.1 SSE 37 54 20 29 1026.4 - 0.0
27/11:00pm 16.0 8.2 5.0 48 5.3 SSE 35 44 19 24 1026.8 - 0.0
27/10:30pm 16.6 8.7 4.6 45 5.7 SSE 35 48 19 26 1026.8 - 0.0
27/10:00pm 17.2 10.2 4.2 42 6.2 SSE 30 44 16 24 1026.8 - 0.0
27/09:30pm 18.0 11.0 4.2 40 6.6 SSE 30 43 16 23 1026.5 - 0.0
27/09:00pm 18.5 11.2 4.7 40 6.6 SSE 32 43 17 23 1026.2 1026.1 0.0
27/08:30pm 19.1 12.9 4.5 38 7.1 SSE 26 37 14 20 1026.1 - 0.0

Other Formats:

Comma delimited format used in spreadsheet applications
http://www.bom.gov.au/fwo/IDQ60801/IDQ60801.94363.axf

JavaScript Object Notation format (JSON) in row-major order
http://www.bom.gov.au/fwo/IDQ60801/IDQ60801.94363.json